createdAt,value
2017-08-23T00:00:31.714Z,11.90
2017-08-23T00:02:59.171Z,11.90
2017-08-23T00:05:26.635Z,11.90
2017-08-23T00:07:54.103Z,11.90
2017-08-23T00:10:21.571Z,11.80
2017-08-23T00:12:49.031Z,11.90
2017-08-23T00:15:16.493Z,11.90
2017-08-23T00:17:43.955Z,11.90
2017-08-23T00:20:11.434Z,11.90
2017-08-23T00:22:38.904Z,11.80
2017-08-23T00:25:06.361Z,11.80
2017-08-23T00:27:33.827Z,11.80
2017-08-23T00:30:01.290Z,11.80
2017-08-23T00:32:28.759Z,11.70
2017-08-23T00:34:56.219Z,11.70
2017-08-23T00:37:23.688Z,11.70
2017-08-23T00:39:51.146Z,11.60
2017-08-23T00:42:18.617Z,11.60
2017-08-23T00:44:46.079Z,11.50
2017-08-23T00:47:13.545Z,11.50
2017-08-23T00:49:41.004Z,11.50
2017-08-23T00:52:08.472Z,11.50
2017-08-23T00:54:35.936Z,11.50
2017-08-23T00:57:03.419Z,11.50
2017-08-23T00:59:30.876Z,11.40
2017-08-23T01:01:58.342Z,11.40
2017-08-23T01:04:25.807Z,11.40
2017-08-23T01:06:53.280Z,11.40
2017-08-23T01:09:20.740Z,11.30
2017-08-23T01:11:48.206Z,11.30
2017-08-23T01:14:15.666Z,11.30
2017-08-23T01:16:43.136Z,11.30
2017-08-23T01:19:10.599Z,11.30
2017-08-23T01:21:38.499Z,11.20
2017-08-23T01:24:05.974Z,11.20
2017-08-23T01:26:33.476Z,11.20
2017-08-23T01:29:00.940Z,11.20
2017-08-23T01:31:28.403Z,11.20
2017-08-23T01:34:02.428Z,11.10
2017-08-23T01:36:29.882Z,11.00
2017-08-23T01:38:57.354Z,11.00
2017-08-23T01:41:24.827Z,11.00
2017-08-23T01:43:52.291Z,11.00
2017-08-23T01:46:19.777Z,10.90
2017-08-23T01:48:47.246Z,10.90
2017-08-23T01:51:14.711Z,11.00
2017-08-23T01:53:42.191Z,11.00
2017-08-23T01:56:09.651Z,11.00
2017-08-23T01:58:37.120Z,11.00
2017-08-23T02:01:04.594Z,11.00
2017-08-23T02:03:32.088Z,11.00
2017-08-23T02:05:59.544Z,10.90
2017-08-23T02:08:27.012Z,10.80
2017-08-23T02:10:54.475Z,10.80
2017-08-23T02:13:21.939Z,10.70
2017-08-23T02:15:49.418Z,10.70
2017-08-23T02:18:16.899Z,10.70
2017-08-23T02:20:44.383Z,10.70
2017-08-23T02:23:11.852Z,10.60
2017-08-23T02:25:39.335Z,10.60
2017-08-23T02:28:07.559Z,10.60
2017-08-23T02:30:35.040Z,10.60
2017-08-23T02:33:02.514Z,10.60
2017-08-23T02:35:29.981Z,10.60
2017-08-23T02:37:57.442Z,10.60
2017-08-23T02:40:24.911Z,10.60
2017-08-23T02:42:52.376Z,10.50
2017-08-23T02:45:20.691Z,10.50
2017-08-23T02:47:48.159Z,10.50
2017-08-23T02:50:15.650Z,10.50
2017-08-23T02:52:43.111Z,10.50
2017-08-23T02:55:10.599Z,10.50
2017-08-23T02:57:38.063Z,10.40
2017-08-23T03:00:05.532Z,10.40
2017-08-23T03:02:33.013Z,10.40
2017-08-23T03:05:00.479Z,10.40
2017-08-23T03:07:27.962Z,10.40
2017-08-23T03:09:55.427Z,10.30
2017-08-23T03:12:22.896Z,10.30
2017-08-23T03:14:50.365Z,10.30
2017-08-23T03:17:17.838Z,10.30
2017-08-23T03:19:45.299Z,10.30
2017-08-23T03:22:13.544Z,10.10
2017-08-23T03:24:41.008Z,10.30
2017-08-23T03:27:08.493Z,10.00
2017-08-23T03:29:35.969Z,10.10
2017-08-23T03:32:03.440Z,10.00
2017-08-23T03:34:30.917Z,9.90
2017-08-23T03:36:58.395Z,9.90
2017-08-23T03:39:26.186Z,9.80
2017-08-23T03:41:53.655Z,9.70
2017-08-23T03:44:21.120Z,9.60
2017-08-23T03:46:48.611Z,9.50
2017-08-23T03:49:16.083Z,9.50
2017-08-23T03:51:44.317Z,9.60
2017-08-23T03:54:11.788Z,9.50
2017-08-23T03:56:39.252Z,9.70
2017-08-23T03:59:06.738Z,9.70
2017-08-23T04:01:34.191Z,9.70
2017-08-23T04:04:01.671Z,9.70
2017-08-23T04:06:29.133Z,9.70
2017-08-23T04:08:56.595Z,9.70
2017-08-23T04:11:24.061Z,9.70
2017-08-23T04:13:51.529Z,9.70
2017-08-23T04:16:19.008Z,9.70
2017-08-23T04:18:46.486Z,9.70
2017-08-23T04:21:13.956Z,9.70
2017-08-23T04:23:41.426Z,9.70
2017-08-23T04:26:08.886Z,9.70
2017-08-23T04:28:36.365Z,9.80
2017-08-23T04:31:03.827Z,9.70
2017-08-23T04:33:31.312Z,9.70
2017-08-23T04:35:58.785Z,9.70
2017-08-23T04:38:26.279Z,9.70
2017-08-23T04:40:53.756Z,9.50
2017-08-23T04:43:21.218Z,9.50
2017-08-23T04:45:48.692Z,9.50
2017-08-23T04:48:16.444Z,9.50
2017-08-23T04:50:47.096Z,9.50
2017-08-23T04:53:14.565Z,9.40
2017-08-23T04:55:42.038Z,9.40
2017-08-23T04:58:09.499Z,9.40
2017-08-23T05:00:36.978Z,9.50
2017-08-23T05:03:04.435Z,9.50
2017-08-23T05:05:31.911Z,9.50
2017-08-23T05:07:59.397Z,9.60
2017-08-23T05:10:26.871Z,9.60
2017-08-23T05:12:54.342Z,9.60
2017-08-23T05:15:21.833Z,9.70
2017-08-23T05:17:49.298Z,9.70
2017-08-23T05:20:16.767Z,9.60
2017-08-23T05:22:47.281Z,9.70
2017-08-23T05:25:14.747Z,9.70
2017-08-23T05:27:42.212Z,9.70
2017-08-23T05:30:09.687Z,9.70
2017-08-23T05:32:37.151Z,9.80
2017-08-23T05:35:04.616Z,9.80
2017-08-23T05:37:32.098Z,9.80
2017-08-23T05:39:59.564Z,9.90
2017-08-23T05:42:27.031Z,10.00
2017-08-23T05:44:54.505Z,10.00
2017-08-23T05:47:21.971Z,10.10
2017-08-23T05:49:49.448Z,10.20
2017-08-23T05:52:16.914Z,10.30
2017-08-23T05:54:44.384Z,10.30
2017-08-23T05:57:11.868Z,10.30
2017-08-23T05:59:39.332Z,10.50
2017-08-23T06:02:06.808Z,10.50
2017-08-23T06:04:34.276Z,10.60
2017-08-23T06:07:01.761Z,10.70
2017-08-23T06:09:29.233Z,10.70
2017-08-23T06:11:56.712Z,10.90
2017-08-23T06:14:24.178Z,11.00
2017-08-23T06:16:52.411Z,11.30
2017-08-23T06:19:19.882Z,11.30
2017-08-23T06:21:47.355Z,11.40
2017-08-23T06:24:14.824Z,11.60
2017-08-23T06:26:43.070Z,11.90
2017-08-23T06:29:10.533Z,11.90
2017-08-23T06:31:38.017Z,12.00
2017-08-23T06:34:07.201Z,12.20
2017-08-23T06:36:34.683Z,12.30
2017-08-23T06:39:02.146Z,12.50
2017-08-23T06:41:29.634Z,12.60
2017-08-23T06:43:57.129Z,12.80
2017-08-23T06:46:24.591Z,13.00
2017-08-23T06:48:52.066Z,13.20
2017-08-23T06:51:19.536Z,13.40
2017-08-23T06:53:47.768Z,13.70
2017-08-23T06:56:15.235Z,13.70
2017-08-23T06:58:42.960Z,13.80
2017-08-23T07:01:10.425Z,13.90
2017-08-23T07:03:37.905Z,14.10
2017-08-23T07:06:05.368Z,14.20
2017-08-23T07:08:32.845Z,14.30
2017-08-23T07:11:00.318Z,14.40
2017-08-23T07:13:27.792Z,14.60
2017-08-23T07:15:55.260Z,14.80
2017-08-23T07:18:22.744Z,14.90
2017-08-23T07:20:50.212Z,15.00
2017-08-23T07:23:17.680Z,15.20
2017-08-23T07:25:45.146Z,15.30
2017-08-23T07:28:12.619Z,15.30
2017-08-23T07:30:40.847Z,15.60
2017-08-23T07:33:08.323Z,15.60
2017-08-23T07:35:35.783Z,15.70
2017-08-23T07:38:03.275Z,15.90
2017-08-23T07:40:30.740Z,16.10
2017-08-23T07:42:58.217Z,16.40
2017-08-23T07:45:25.692Z,16.60
2017-08-23T07:47:53.160Z,16.80
2017-08-23T07:50:20.637Z,17.00
2017-08-23T07:52:48.119Z,17.20
2017-08-23T07:55:15.623Z,17.40
2017-08-23T07:57:43.091Z,17.50
2017-08-23T08:00:10.569Z,17.60
2017-08-23T08:02:38.033Z,17.70
2017-08-23T08:05:05.507Z,17.90
2017-08-23T08:07:36.418Z,18.10
2017-08-23T08:10:03.899Z,18.10
2017-08-23T08:12:31.365Z,18.40
2017-08-23T08:14:58.829Z,18.50
2017-08-23T08:17:26.301Z,18.60
2017-08-23T08:19:53.773Z,18.90
2017-08-23T08:22:21.243Z,19.00
2017-08-23T08:24:48.727Z,19.00
2017-08-23T08:27:16.212Z,19.10
2017-08-23T08:29:43.688Z,19.30
2017-08-23T08:32:11.160Z,19.40
2017-08-23T08:34:38.632Z,19.50
2017-08-23T08:37:06.109Z,19.50
2017-08-23T08:39:33.579Z,19.60
2017-08-23T08:42:01.056Z,19.80
2017-08-23T08:44:28.532Z,19.90
2017-08-23T08:46:56.000Z,20.00
2017-08-23T08:49:23.471Z,20.20
2017-08-23T08:51:50.950Z,20.20
2017-08-23T08:54:18.416Z,20.40
2017-08-23T08:56:45.896Z,20.70
2017-08-23T08:59:13.366Z,20.80
2017-08-23T09:01:43.016Z,20.90
2017-08-23T09:04:10.479Z,21.10
2017-08-23T09:06:37.977Z,21.30
2017-08-23T09:09:05.427Z,21.40
2017-08-23T09:11:32.891Z,21.40
2017-08-23T09:14:00.364Z,21.50
2017-08-23T09:16:27.826Z,21.50
2017-08-23T09:18:55.294Z,22.00
2017-08-23T09:21:22.760Z,22.30
2017-08-23T09:23:50.227Z,22.50
2017-08-23T09:26:17.697Z,22.30
2017-08-23T09:28:45.164Z,22.60
2017-08-23T09:31:12.627Z,22.60
2017-08-23T09:33:40.315Z,22.80
2017-08-23T09:36:07.783Z,22.80
2017-08-23T09:38:35.260Z,22.90
2017-08-23T09:41:02.743Z,23.00
2017-08-23T09:43:30.232Z,22.90
2017-08-23T09:45:57.707Z,23.00
2017-08-23T09:48:25.172Z,23.20
2017-08-23T09:50:53.005Z,23.20
2017-08-23T09:53:20.473Z,23.30
2017-08-23T09:55:47.945Z,23.30
2017-08-23T09:58:15.420Z,23.50
2017-08-23T10:00:42.883Z,23.50
2017-08-23T10:03:10.356Z,23.50
2017-08-23T10:05:37.837Z,23.50
2017-08-23T10:08:05.308Z,23.60
2017-08-23T10:10:32.784Z,23.70
2017-08-23T10:13:00.249Z,23.90
2017-08-23T10:15:27.725Z,24.00
2017-08-23T10:17:55.187Z,23.80
2017-08-23T10:20:22.659Z,23.90
2017-08-23T10:22:50.129Z,24.00
2017-08-23T10:25:17.611Z,24.20
2017-08-23T10:27:45.077Z,24.30
2017-08-23T10:30:12.548Z,24.50
2017-08-23T10:32:40.021Z,24.60
2017-08-23T10:38:00.473Z,24.90
2017-08-23T10:40:28.707Z,24.60
2017-08-23T10:42:56.168Z,24.60
2017-08-23T10:45:23.648Z,24.50
2017-08-23T10:47:51.111Z,24.30
2017-08-23T10:50:18.591Z,24.30
2017-08-23T10:52:46.055Z,24.00
2017-08-23T10:55:13.515Z,23.80
2017-08-23T10:57:40.996Z,23.80
2017-08-23T11:00:08.477Z,23.70
2017-08-23T11:02:36.344Z,24.00
2017-08-23T11:05:03.799Z,24.20
2017-08-23T11:07:31.278Z,24.30
2017-08-23T11:09:58.740Z,24.50
2017-08-23T11:12:26.215Z,24.50
2017-08-23T11:14:53.681Z,24.80
2017-08-23T11:17:21.152Z,24.90
2017-08-23T11:19:48.620Z,25.10
2017-08-23T11:22:16.092Z,25.30
2017-08-23T11:24:43.558Z,25.40
2017-08-23T11:27:11.403Z,25.50
2017-08-23T11:29:38.856Z,25.30
2017-08-23T11:32:06.331Z,25.50
2017-08-23T11:34:33.795Z,25.60
2017-08-23T11:37:01.273Z,25.70
2017-08-23T11:39:28.742Z,25.50
2017-08-23T11:41:56.233Z,25.30
2017-08-23T11:44:23.703Z,25.20
2017-08-23T11:46:51.189Z,25.40
2017-08-23T11:49:18.655Z,25.60
2017-08-23T11:51:46.126Z,25.50
2017-08-23T11:54:13.592Z,25.50
2017-08-23T11:56:41.055Z,25.40
2017-08-23T11:59:08.527Z,25.50
2017-08-23T12:01:35.988Z,25.50
2017-08-23T12:04:03.472Z,25.60
2017-08-23T12:06:30.959Z,25.50
2017-08-23T12:08:58.444Z,25.70
2017-08-23T12:11:25.919Z,25.70
2017-08-23T12:13:53.485Z,25.40
2017-08-23T12:16:20.968Z,25.30
2017-08-23T12:18:48.451Z,25.50
2017-08-23T12:21:15.920Z,25.70
2017-08-23T12:23:43.404Z,25.90
2017-08-23T12:26:10.869Z,26.10
2017-08-23T12:28:38.373Z,26.20
2017-08-23T12:31:05.845Z,26.20
2017-08-23T12:33:33.332Z,26.30
2017-08-23T12:36:00.833Z,26.30
2017-08-23T12:38:28.321Z,26.20
2017-08-23T12:40:55.793Z,26.20
2017-08-23T12:43:23.274Z,26.20
2017-08-23T12:45:50.753Z,26.20
2017-08-23T12:48:18.227Z,26.00
2017-08-23T12:50:47.517Z,25.60
2017-08-23T12:53:14.988Z,25.70
2017-08-23T12:55:42.469Z,25.70
2017-08-23T12:58:09.936Z,25.80
2017-08-23T13:00:37.425Z,25.90
2017-08-23T13:03:04.891Z,26.10
2017-08-23T13:05:32.368Z,26.00
2017-08-23T13:07:59.832Z,26.30
2017-08-23T13:10:27.304Z,26.50
2017-08-23T13:12:54.768Z,26.60
2017-08-23T13:15:22.231Z,26.70
2017-08-23T13:17:50.459Z,26.80
2017-08-23T13:20:17.932Z,26.80
2017-08-23T13:22:45.396Z,26.90
2017-08-23T13:25:12.885Z,26.90
2017-08-23T13:27:40.358Z,26.90
2017-08-23T13:30:07.820Z,27.10
2017-08-23T13:32:35.296Z,27.00
2017-08-23T13:35:02.768Z,27.10
2017-08-23T13:37:30.244Z,27.10
2017-08-23T13:39:57.716Z,27.10
2017-08-23T13:42:25.194Z,27.30
2017-08-23T13:44:52.660Z,27.00
2017-08-23T13:47:20.129Z,27.10
2017-08-23T13:49:47.593Z,27.10
2017-08-23T13:52:15.065Z,27.00
2017-08-23T13:54:42.540Z,27.10
2017-08-23T13:57:10.015Z,27.10
2017-08-23T13:59:37.479Z,26.90
2017-08-23T14:02:04.956Z,26.80
2017-08-23T14:04:32.421Z,26.80
2017-08-23T14:06:59.892Z,26.80
2017-08-23T14:09:27.356Z,26.90
2017-08-23T14:11:54.836Z,27.00
2017-08-23T14:14:22.308Z,27.20
2017-08-23T14:16:49.776Z,27.10
2017-08-23T14:19:17.244Z,27.10
2017-08-23T14:21:44.731Z,27.10
2017-08-23T14:24:12.197Z,27.10
2017-08-23T14:26:39.660Z,27.20
2017-08-23T14:29:07.136Z,27.10
2017-08-23T14:31:34.600Z,27.10
2017-08-23T14:34:02.078Z,27.20
2017-08-23T14:36:29.551Z,27.10
2017-08-23T14:38:57.028Z,27.20
2017-08-23T14:41:24.495Z,27.10
2017-08-23T14:43:51.987Z,27.20
2017-08-23T14:46:19.451Z,27.30
2017-08-23T14:48:46.927Z,27.30
2017-08-23T14:51:14.392Z,27.30
2017-08-23T14:53:42.223Z,27.40
2017-08-23T14:56:09.680Z,27.50
2017-08-23T14:58:37.164Z,27.50
2017-08-23T15:01:04.627Z,27.60
2017-08-23T15:03:32.109Z,27.60
2017-08-23T15:05:59.575Z,27.50
2017-08-23T15:08:27.048Z,27.50
2017-08-23T15:10:54.518Z,27.50
2017-08-23T15:13:21.984Z,27.60
2017-08-23T15:15:49.449Z,27.50
2017-08-23T15:18:16.932Z,27.60
2017-08-23T15:20:44.401Z,27.50
2017-08-23T15:23:11.873Z,27.50
2017-08-23T15:25:41.613Z,27.60
2017-08-23T15:28:09.120Z,27.50
2017-08-23T15:30:36.591Z,27.50
2017-08-23T15:33:04.072Z,27.60
2017-08-23T15:35:31.532Z,27.50
2017-08-23T15:37:59.003Z,27.50
2017-08-23T15:40:26.464Z,27.50
2017-08-23T15:42:53.942Z,27.50
2017-08-23T15:45:21.403Z,27.60
2017-08-23T15:47:48.876Z,27.50
2017-08-23T15:50:16.340Z,27.50
2017-08-23T15:52:43.820Z,27.50
2017-08-23T15:55:11.276Z,27.60
2017-08-23T15:57:38.743Z,27.60
2017-08-23T16:00:06.234Z,27.50
2017-08-23T16:02:34.475Z,27.10
2017-08-23T16:05:01.935Z,27.10
2017-08-23T16:07:32.216Z,27.00
2017-08-23T16:09:59.700Z,27.00
2017-08-23T16:12:27.164Z,27.00
2017-08-23T16:14:54.633Z,26.90
2017-08-23T16:17:22.101Z,26.70
2017-08-23T16:19:49.584Z,26.50
2017-08-23T16:22:17.054Z,26.50
2017-08-23T16:24:44.533Z,26.40
2017-08-23T16:27:12.000Z,26.30
2017-08-23T16:29:39.469Z,26.20
2017-08-23T16:32:06.937Z,26.10
2017-08-23T16:34:34.408Z,26.00
2017-08-23T16:37:01.888Z,25.80
2017-08-23T16:39:29.364Z,25.60
2017-08-23T16:41:56.846Z,25.40
2017-08-23T16:44:24.317Z,25.20
2017-08-23T16:46:51.913Z,25.20
2017-08-23T16:49:19.467Z,25.00
2017-08-23T16:51:46.940Z,24.80
2017-08-23T16:54:14.423Z,24.60
2017-08-23T16:56:41.920Z,24.50
2017-08-23T16:59:09.403Z,24.40
2017-08-23T17:01:36.885Z,24.30
2017-08-23T17:04:04.351Z,24.10
2017-08-23T17:06:31.836Z,23.90
2017-08-23T17:08:59.328Z,23.90
2017-08-23T17:11:26.802Z,23.80
2017-08-23T17:13:54.279Z,23.70
2017-08-23T17:16:21.752Z,23.60
2017-08-23T17:18:49.219Z,23.60
2017-08-23T17:21:16.696Z,23.50
2017-08-23T17:23:44.161Z,23.40
2017-08-23T17:26:11.635Z,23.20
2017-08-23T17:28:39.095Z,23.20
2017-08-23T17:31:06.573Z,23.10
2017-08-23T17:33:34.039Z,23.10
2017-08-23T17:36:01.511Z,23.00
2017-08-23T17:38:28.973Z,22.90
2017-08-23T17:40:56.444Z,22.70
2017-08-23T17:43:23.919Z,22.60
2017-08-23T17:45:51.397Z,22.50
2017-08-23T17:48:18.863Z,22.40
2017-08-23T17:50:46.336Z,22.30
2017-08-23T17:53:13.800Z,22.20
2017-08-23T17:55:41.268Z,22.10
2017-08-23T17:58:08.733Z,22.10
2017-08-23T18:00:36.210Z,22.00
2017-08-23T18:03:03.674Z,21.90
2017-08-23T18:05:31.152Z,21.90
2017-08-23T18:07:58.617Z,21.80
2017-08-23T18:10:26.092Z,21.70
2017-08-23T18:12:53.560Z,21.70
2017-08-23T18:15:21.030Z,21.60
2017-08-23T18:17:48.496Z,21.40
2017-08-23T18:20:15.955Z,21.30
2017-08-23T18:22:43.446Z,21.10
2017-08-23T18:25:10.912Z,20.90
2017-08-23T18:27:38.388Z,20.80
2017-08-23T18:30:05.848Z,20.70
2017-08-23T18:32:33.326Z,20.50
2017-08-23T18:35:00.796Z,20.40
2017-08-23T18:37:28.268Z,20.30
2017-08-23T18:39:55.732Z,20.20
2017-08-23T18:42:23.228Z,20.10
2017-08-23T18:44:50.688Z,20.10
2017-08-23T18:47:18.165Z,20.00
2017-08-23T18:49:45.635Z,19.80
2017-08-23T18:52:13.108Z,19.70
2017-08-23T18:54:40.575Z,19.70
2017-08-23T18:57:08.047Z,19.60
2017-08-23T18:59:35.512Z,19.50
2017-08-23T19:02:02.984Z,19.40
2017-08-23T19:04:30.448Z,19.30
2017-08-23T19:06:57.929Z,19.10
2017-08-23T19:09:25.395Z,19.00
2017-08-23T19:11:52.876Z,19.00
2017-08-23T19:14:20.331Z,18.90
2017-08-23T19:16:47.804Z,18.80
2017-08-23T19:19:15.291Z,18.70
2017-08-23T19:21:42.767Z,18.40
2017-08-23T19:24:10.350Z,18.30
2017-08-23T19:26:38.619Z,18.10
2017-08-23T19:29:06.087Z,18.10
2017-08-23T19:31:33.557Z,18.10
2017-08-23T19:34:01.048Z,18.10
2017-08-23T19:36:28.514Z,18.10
2017-08-23T19:38:56.033Z,18.10
2017-08-23T19:41:23.499Z,18.10
2017-08-23T19:43:50.972Z,18.10
2017-08-23T19:46:18.440Z,18.00
2017-08-23T19:48:45.916Z,18.00
2017-08-23T19:51:13.371Z,17.90
2017-08-23T19:53:40.859Z,17.90
2017-08-23T19:56:08.320Z,17.90
2017-08-23T19:58:36.571Z,17.70
2017-08-23T20:01:04.036Z,17.70
2017-08-23T20:03:31.508Z,17.60
2017-08-23T20:05:58.967Z,17.60
2017-08-23T20:08:27.210Z,17.50
2017-08-23T20:10:54.683Z,17.50
2017-08-23T20:13:22.926Z,17.40
2017-08-23T20:15:50.406Z,17.40
2017-08-23T20:18:17.887Z,17.40
2017-08-23T20:20:45.348Z,17.40
2017-08-23T20:23:12.826Z,17.30
2017-08-23T20:25:40.283Z,17.20
2017-08-23T20:28:07.765Z,17.20
2017-08-23T20:30:35.413Z,17.10
2017-08-23T20:33:02.908Z,17.10
2017-08-23T20:35:30.378Z,17.10
2017-08-23T20:37:58.199Z,17.10
2017-08-23T20:40:25.669Z,17.10
2017-08-23T20:42:53.127Z,17.00
2017-08-23T20:45:20.612Z,17.00
2017-08-23T20:47:48.071Z,16.90
2017-08-23T20:50:15.556Z,17.00
2017-08-23T20:52:43.021Z,16.90
2017-08-23T20:55:10.492Z,16.90
2017-08-23T20:57:37.956Z,17.00
2017-08-23T21:00:05.438Z,16.90
2017-08-23T21:02:32.896Z,16.90
2017-08-23T21:05:00.369Z,16.80
2017-08-23T21:07:27.829Z,16.80
2017-08-23T21:09:55.298Z,16.70
2017-08-23T21:12:22.782Z,16.70
2017-08-23T21:14:50.244Z,16.70
2017-08-23T21:17:17.724Z,16.70
2017-08-23T21:19:45.190Z,16.60
2017-08-23T21:22:12.660Z,16.50
2017-08-23T21:24:40.123Z,16.50
2017-08-23T21:27:07.881Z,16.50
2017-08-23T21:29:35.340Z,16.40
2017-08-23T21:32:02.822Z,16.40
2017-08-23T21:34:30.288Z,16.40
2017-08-23T21:36:57.765Z,16.40
2017-08-23T21:39:25.236Z,16.30
2017-08-23T21:41:52.712Z,16.30
2017-08-23T21:44:20.177Z,16.30
2017-08-23T21:46:47.661Z,16.30
2017-08-23T21:49:16.135Z,16.30
2017-08-23T21:51:44.479Z,16.30
2017-08-23T21:54:11.941Z,16.30
2017-08-23T21:56:39.418Z,16.20
2017-08-23T21:59:06.883Z,16.20
2017-08-23T22:01:34.363Z,16.10
2017-08-23T22:04:01.871Z,16.20
2017-08-23T22:06:29.345Z,16.10
2017-08-23T22:08:56.807Z,16.10
2017-08-23T22:11:24.286Z,16.00
2017-08-23T22:13:51.756Z,16.10
2017-08-23T22:16:19.232Z,16.10
2017-08-23T22:18:46.703Z,16.10
2017-08-23T22:21:14.204Z,16.00
2017-08-23T22:23:41.682Z,16.10
2017-08-23T22:26:09.143Z,16.00
2017-08-23T22:28:36.618Z,16.00
2017-08-23T22:31:04.097Z,16.00
2017-08-23T22:33:31.560Z,16.00
2017-08-23T22:35:59.032Z,16.00
2017-08-23T22:38:26.507Z,16.00
2017-08-23T22:40:53.976Z,15.90
2017-08-23T22:43:21.443Z,15.80
2017-08-23T22:45:48.912Z,15.70
2017-08-23T22:48:16.375Z,15.70
2017-08-23T22:50:43.830Z,15.60
2017-08-23T22:53:11.295Z,15.40
2017-08-23T22:55:38.759Z,15.50
2017-08-23T22:58:06.235Z,15.50
2017-08-23T23:00:34.484Z,15.40
2017-08-23T23:03:01.946Z,15.40
2017-08-23T23:05:29.412Z,15.30
2017-08-23T23:07:56.867Z,15.40
2017-08-23T23:10:24.335Z,15.50
2017-08-23T23:12:51.790Z,15.40
2017-08-23T23:15:19.277Z,15.50
2017-08-23T23:17:46.734Z,15.50
2017-08-23T23:20:14.199Z,15.50
2017-08-23T23:22:41.659Z,15.50
2017-08-23T23:25:09.128Z,15.50
2017-08-23T23:27:36.586Z,15.50
2017-08-23T23:30:04.056Z,15.50
2017-08-23T23:32:31.507Z,15.50
2017-08-23T23:34:58.972Z,15.50
2017-08-23T23:37:26.431Z,15.30
2017-08-23T23:39:53.913Z,15.30
2017-08-23T23:42:21.380Z,15.30
2017-08-23T23:44:48.845Z,15.10
2017-08-23T23:47:16.323Z,15.10
2017-08-23T23:49:43.779Z,14.90
2017-08-23T23:52:11.255Z,14.90
2017-08-23T23:54:38.724Z,14.90
2017-08-23T23:57:06.204Z,14.90
2017-08-23T23:59:33.668Z,14.90
